Fort Pierce, FL

2:09 AM EST on March 01, 2015 (GMT -0500)
Saint Lucie County International | Change Station
CLOSE
Current Station
Airport
Location: Ft Pierce,
Elevation: 23 ft
Nearby Weather Stations

Elev 23 ft 27.50 °N, 80.38 °W | Updated 16 minutes ago

Overcast
Overcast
72 °F
Feels Like 72 °F
N
13
Wind Variable Wind from East

Today
High -- | Low -- °F
--% Chance of Precip.
Yesterday
High -- | Low -- °F
Precip. -- in
6:46 AM 6:22 PM
Waxing Gibbous, 83% visible
Pressure 30.30 in
Visibility 10.0 miles
Clouds Mostly Cloudy 2200 ft
Mostly Cloudy 2700 ft
Overcast 3300 ft
Dew Point 67 °F
Humidity 84%
Rainfall 0.00 in
Snow Depth Not available.
UV 0 out of 12
Pollen 6.10 out of 12
Air Quality Not available.
Flu Activity Not available.
METAR KFPR 010653Z 08011KT 10SM BKN022 BKN027 OVC033 22/19 A3030 RMK AO2 RAB14E23 SLP259 P0000 T02220194

More Conditions Fewer Conditions

Pressure 30.30 in
Visibility 10.0 miles
Clouds Mostly Cloudy 2200 ft
Mostly Cloudy 2700 ft
Overcast 3300 ft
Dew Point 67 °F
Humidity 84%
Rainfall 0.00 in
Snow Depth Not available.
UV 0 out of 12
Pollen 6.10 out of 12
Air Quality Not available.
Flu Activity Not available.
METAR KFPR 010653Z 08011KT 10SM BKN022 BKN027 OVC033 22/19 A3030 RMK AO2 RAB14E23 SLP259 P0000 T02220194

More Conditions Fewer Conditions

10-Day Weather Forecast

Almanac

Astronomy

Mar. 01, 2015 Rise Set
Actual Time
Civil Twilight
Nautical Twilight
Astronomical Twilight
Moon
Length of Visible Light
Length of Day
Tomorrow will be .
, % of the Moon is Illuminated

Today's Extremes

State Highs State Lows

Community

WunderPhotos

Upload Photos

1,801,347 photos uploaded!

WunderBlogs® & News

Nearby

Air Quality

  Air Quality AQ Index Pollutant
Not available.

Snow Depth

Station Depth Elevation

Earthquake Activity

City Distance Mag. Time & Date
Minimum magnitude displayed is 2.5.

Coastal Water Temperatures

Place Temperature

Nearby Weather Stations